sensor_id;sensor_type;location;lat;lon;timestamp;P1;durP1;ratioP1;P2;durP2;ratioP2
44816;SDS011;30529;53.570;9.964;2023-02-04T00:00:59;6.10;;;0.90;;
44816;SDS011;30529;53.570;9.964;2023-02-04T00:03:40;1.07;;;0.87;;
44816;SDS011;30529;53.570;9.964;2023-02-04T00:06:59;3.13;;;0.90;;
44816;SDS011;30529;53.570;9.964;2023-02-04T00:09:31;2.27;;;0.70;;
44816;SDS011;30529;53.570;9.964;2023-02-04T00:11:59;1.63;;;1.20;;
44816;SDS011;30529;53.570;9.964;2023-02-04T00:14:25;4.13;;;0.87;;
44816;SDS011;30529;53.570;9.964;2023-02-04T00:16:54;2.60;;;0.90;;
44816;SDS011;30529;53.570;9.964;2023-02-04T00:19:20;1.97;;;1.00;;
44816;SDS011;30529;53.570;9.964;2023-02-04T00:21:47;1.53;;;0.80;;
44816;SDS011;30529;53.570;9.964;2023-02-04T00:24:15;1.33;;;0.93;;
44816;SDS011;30529;53.570;9.964;2023-02-04T00:26:41;0.93;;;0.80;;
44816;SDS011;30529;53.570;9.964;2023-02-04T00:29:20;1.67;;;0.80;;
44816;SDS011;30529;53.570;9.964;2023-02-04T00:33:05;3.17;;;1.00;;
44816;SDS011;30529;53.570;9.964;2023-02-04T00:35:35;1.10;;;0.70;;
44816;SDS011;30529;53.570;9.964;2023-02-04T00:38:05;2.63;;;1.10;;
44816;SDS011;30529;53.570;9.964;2023-02-04T00:40:34;3.43;;;0.93;;
44816;SDS011;30529;53.570;9.964;2023-02-04T00:43:01;2.17;;;1.00;;
44816;SDS011;30529;53.570;9.964;2023-02-04T00:45:26;1.27;;;0.97;;
44816;SDS011;30529;53.570;9.964;2023-02-04T00:47:52;1.27;;;1.00;;
44816;SDS011;30529;53.570;9.964;2023-02-04T00:50:21;2.40;;;0.90;;
44816;SDS011;30529;53.570;9.964;2023-02-04T00:52:50;2.63;;;1.20;;
44816;SDS011;30529;53.570;9.964;2023-02-04T00:55:19;1.60;;;1.10;;
44816;SDS011;30529;53.570;9.964;2023-02-04T00:57:45;2.27;;;1.03;;
44816;SDS011;30529;53.570;9.964;2023-02-04T01:00:32;1.97;;;1.00;;
44816;SDS011;30529;53.570;9.964;2023-02-04T01:02:58;2.77;;;1.10;;
44816;SDS011;30529;53.570;9.964;2023-02-04T01:05:24;1.53;;;1.00;;
44816;SDS011;30529;53.570;9.964;2023-02-04T01:08:02;1.30;;;0.90;;
44816;SDS011;30529;53.570;9.964;2023-02-04T01:10:28;2.67;;;1.00;;
44816;SDS011;30529;53.570;9.964;2023-02-04T01:12:58;2.60;;;0.93;;
44816;SDS011;30529;53.570;9.964;2023-02-04T01:18:26;1.60;;;0.90;;
44816;SDS011;30529;53.570;9.964;2023-02-04T01:20:52;3.17;;;1.17;;
44816;SDS011;30529;53.570;9.964;2023-02-04T01:23:18;2.20;;;1.00;;
44816;SDS011;30529;53.570;9.964;2023-02-04T01:25:44;2.37;;;1.17;;
44816;SDS011;30529;53.570;9.964;2023-02-04T01:28:10;2.10;;;1.30;;
44816;SDS011;30529;53.570;9.964;2023-02-04T01:30:37;1.97;;;1.07;;
44816;SDS011;30529;53.570;9.964;2023-02-04T01:33:03;2.77;;;0.90;;
44816;SDS011;30529;53.570;9.964;2023-02-04T01:35:29;1.20;;;1.00;;
44816;SDS011;30529;53.570;9.964;2023-02-04T01:37:55;1.00;;;0.90;;
44816;SDS011;30529;53.570;9.964;2023-02-04T01:40:21;2.67;;;1.10;;
44816;SDS011;30529;53.570;9.964;2023-02-04T01:42:47;3.00;;;1.03;;
44816;SDS011;30529;53.570;9.964;2023-02-04T01:45:13;1.47;;;0.87;;
44816;SDS011;30529;53.570;9.964;2023-02-04T01:47:39;2.03;;;1.00;;
44816;SDS011;30529;53.570;9.964;2023-02-04T01:50:05;1.20;;;0.97;;
44816;SDS011;30529;53.570;9.964;2023-02-04T01:52:34;2.20;;;0.93;;
44816;SDS011;30529;53.570;9.964;2023-02-04T03:17:58;1.50;;;1.20;;
44816;SDS011;30529;53.570;9.964;2023-02-04T03:25:03;3.37;;;1.50;;
44816;SDS011;30529;53.570;9.964;2023-02-04T03:27:58;3.40;;;1.20;;
44816;SDS011;30529;53.570;9.964;2023-02-04T03:30:41;1.47;;;1.20;;
44816;SDS011;30529;53.570;9.964;2023-02-04T03:33:35;1.97;;;1.10;;
44816;SDS011;30529;53.570;9.964;2023-02-04T03:36:33;1.90;;;1.20;;
44816;SDS011;30529;53.570;9.964;2023-02-04T03:46:43;1.47;;;0.97;;
44816;SDS011;30529;53.570;9.964;2023-02-04T03:50:38;1.97;;;1.37;;
44816;SDS011;30529;53.570;9.964;2023-02-04T03:54:25;4.47;;;1.40;;
44816;SDS011;30529;53.570;9.964;2023-02-04T03:56:52;5.20;;;1.67;;
44816;SDS011;30529;53.570;9.964;2023-02-04T03:59:19;3.37;;;1.10;;
44816;SDS011;30529;53.570;9.964;2023-02-04T05:15:47;4.17;;;1.37;;
44816;SDS011;30529;53.570;9.964;2023-02-04T05:19:48;2.60;;;1.50;;
44816;SDS011;30529;53.570;9.964;2023-02-04T05:23:38;2.37;;;1.50;;
44816;SDS011;30529;53.570;9.964;2023-02-04T05:26:09;4.23;;;1.20;;
44816;SDS011;30529;53.570;9.964;2023-02-04T05:28:35;2.63;;;1.40;;
44816;SDS011;30529;53.570;9.964;2023-02-04T05:31:06;3.87;;;1.50;;
44816;SDS011;30529;53.570;9.964;2023-02-04T05:33:32;2.57;;;1.33;;
44816;SDS011;30529;53.570;9.964;2023-02-04T05:35:58;3.17;;;1.47;;
44816;SDS011;30529;53.570;9.964;2023-02-04T05:38:24;3.07;;;1.57;;
44816;SDS011;30529;53.570;9.964;2023-02-04T05:40:56;3.83;;;1.60;;
44816;SDS011;30529;53.570;9.964;2023-02-04T05:43:27;2.27;;;1.30;;
44816;SDS011;30529;53.570;9.964;2023-02-04T05:46:00;2.67;;;1.13;;
44816;SDS011;30529;53.570;9.964;2023-02-04T05:48:28;3.80;;;1.30;;
44816;SDS011;30529;53.570;9.964;2023-02-04T05:51:00;2.63;;;1.70;;
44816;SDS011;30529;53.570;9.964;2023-02-04T05:53:39;2.27;;;1.10;;
44816;SDS011;30529;53.570;9.964;2023-02-04T05:56:12;2.43;;;1.33;;
44816;SDS011;30529;53.570;9.964;2023-02-04T05:58:42;2.40;;;1.23;;
44816;SDS011;30529;53.570;9.964;2023-02-04T06:01:08;4.57;;;1.60;;
44816;SDS011;30529;53.570;9.964;2023-02-04T06:15:21;3.20;;;1.60;;
44816;SDS011;30529;53.570;9.964;2023-02-04T06:19:22;3.20;;;2.00;;
44816;SDS011;30529;53.570;9.964;2023-02-04T06:31:00;3.03;;;1.93;;
44816;SDS011;30529;53.570;9.964;2023-02-04T06:38:32;5.93;;;2.40;;
44816;SDS011;30529;53.570;9.964;2023-02-04T06:41:02;2.67;;;2.10;;
44816;SDS011;30529;53.570;9.964;2023-02-04T06:43:28;5.77;;;2.10;;
44816;SDS011;30529;53.570;9.964;2023-02-04T06:45:54;3.20;;;2.00;;
44816;SDS011;30529;53.570;9.964;2023-02-04T06:48:23;4.40;;;2.13;;
44816;SDS011;30529;53.570;9.964;2023-02-04T06:50:49;5.23;;;2.57;;
44816;SDS011;30529;53.570;9.964;2023-02-04T06:53:26;4.00;;;2.20;;
44816;SDS011;30529;53.570;9.964;2023-02-04T06:56:08;3.80;;;2.70;;
44816;SDS011;30529;53.570;9.964;2023-02-04T06:58:38;2.47;;;2.20;;
44816;SDS011;30529;53.570;9.964;2023-02-04T07:01:05;3.27;;;1.90;;
44816;SDS011;30529;53.570;9.964;2023-02-04T07:03:33;3.13;;;2.07;;
44816;SDS011;30529;53.570;9.964;2023-02-04T07:05:59;3.73;;;1.60;;
44816;SDS011;30529;53.570;9.964;2023-02-04T07:08:25;4.07;;;2.10;;
44816;SDS011;30529;53.570;9.964;2023-02-04T07:10:51;4.07;;;2.10;;
44816;SDS011;30529;53.570;9.964;2023-02-04T07:13:17;4.03;;;2.27;;
44816;SDS011;30529;53.570;9.964;2023-02-04T07:15:43;5.60;;;2.50;;
44816;SDS011;30529;53.570;9.964;2023-02-04T07:18:09;3.03;;;1.90;;
44816;SDS011;30529;53.570;9.964;2023-02-04T07:20:36;3.80;;;2.10;;
44816;SDS011;30529;53.570;9.964;2023-02-04T07:23:02;4.93;;;1.93;;
44816;SDS011;30529;53.570;9.964;2023-02-04T07:25:28;3.43;;;1.87;;
44816;SDS011;30529;53.570;9.964;2023-02-04T07:27:54;4.30;;;2.10;;
44816;SDS011;30529;53.570;9.964;2023-02-04T07:30:22;3.03;;;2.13;;
44816;SDS011;30529;53.570;9.964;2023-02-04T07:32:48;4.67;;;2.13;;
44816;SDS011;30529;53.570;9.964;2023-02-04T07:35:14;7.50;;;2.40;;
44816;SDS011;30529;53.570;9.964;2023-02-04T07:37:40;3.87;;;1.93;;
44816;SDS011;30529;53.570;9.964;2023-02-04T07:40:06;2.47;;;1.63;;
44816;SDS011;30529;53.570;9.964;2023-02-04T07:42:33;2.63;;;1.83;;
44816;SDS011;30529;53.570;9.964;2023-02-04T07:44:59;3.57;;;2.00;;
44816;SDS011;30529;53.570;9.964;2023-02-04T07:47:25;2.83;;;1.73;;
44816;SDS011;30529;53.570;9.964;2023-02-04T07:49:53;3.80;;;1.73;;
44816;SDS011;30529;53.570;9.964;2023-02-04T07:52:24;5.10;;;2.77;;
44816;SDS011;30529;53.570;9.964;2023-02-04T07:54:50;4.53;;;2.30;;
44816;SDS011;30529;53.570;9.964;2023-02-04T07:57:26;2.83;;;1.80;;
44816;SDS011;30529;53.570;9.964;2023-02-04T08:00:04;3.53;;;1.77;;
44816;SDS011;30529;53.570;9.964;2023-02-04T08:02:31;4.83;;;2.30;;
44816;SDS011;30529;53.570;9.964;2023-02-04T08:04:57;4.37;;;1.83;;
44816;SDS011;30529;53.570;9.964;2023-02-04T08:07:23;2.60;;;1.70;;
44816;SDS011;30529;53.570;9.964;2023-02-04T08:09:49;4.17;;;1.90;;
44816;SDS011;30529;53.570;9.964;2023-02-04T08:12:15;2.77;;;1.47;;
44816;SDS011;30529;53.570;9.964;2023-02-04T08:14:41;3.27;;;1.77;;
44816;SDS011;30529;53.570;9.964;2023-02-04T08:17:07;3.13;;;1.70;;
44816;SDS011;30529;53.570;9.964;2023-02-04T08:19:33;4.23;;;1.50;;
44816;SDS011;30529;53.570;9.964;2023-02-04T08:21:59;2.73;;;1.77;;
44816;SDS011;30529;53.570;9.964;2023-02-04T08:24:25;2.37;;;1.47;;
44816;SDS011;30529;53.570;9.964;2023-02-04T08:26:51;2.53;;;1.73;;
44816;SDS011;30529;53.570;9.964;2023-02-04T08:29:17;7.13;;;1.80;;
44816;SDS011;30529;53.570;9.964;2023-02-04T08:31:43;3.33;;;1.60;;
44816;SDS011;30529;53.570;9.964;2023-02-04T08:34:12;2.70;;;1.80;;
44816;SDS011;30529;53.570;9.964;2023-02-04T08:36:40;10.00;;;1.80;;
44816;SDS011;30529;53.570;9.964;2023-02-04T08:39:09;2.87;;;1.43;;
44816;SDS011;30529;53.570;9.964;2023-02-04T08:41:35;2.47;;;1.50;;
44816;SDS011;30529;53.570;9.964;2023-02-04T08:44:01;2.17;;;1.57;;
44816;SDS011;30529;53.570;9.964;2023-02-04T08:46:27;4.20;;;1.40;;
44816;SDS011;30529;53.570;9.964;2023-02-04T08:48:53;2.70;;;1.57;;
44816;SDS011;30529;53.570;9.964;2023-02-04T08:51:19;2.13;;;1.40;;
44816;SDS011;30529;53.570;9.964;2023-02-04T08:53:45;1.93;;;1.30;;
44816;SDS011;30529;53.570;9.964;2023-02-04T08:56:11;3.57;;;1.43;;
44816;SDS011;30529;53.570;9.964;2023-02-04T08:58:41;1.83;;;1.40;;
44816;SDS011;30529;53.570;9.964;2023-02-04T09:01:08;4.87;;;1.30;;
44816;SDS011;30529;53.570;9.964;2023-02-04T09:03:36;1.43;;;1.00;;
44816;SDS011;30529;53.570;9.964;2023-02-04T09:06:02;2.50;;;1.23;;
44816;SDS011;30529;53.570;9.964;2023-02-04T09:08:29;2.60;;;1.37;;
44816;SDS011;30529;53.570;9.964;2023-02-04T09:10:57;2.37;;;1.53;;
44816;SDS011;30529;53.570;9.964;2023-02-04T09:13:23;2.10;;;1.40;;
44816;SDS011;30529;53.570;9.964;2023-02-04T09:15:49;4.63;;;1.37;;
44816;SDS011;30529;53.570;9.964;2023-02-04T09:18:17;2.57;;;1.40;;
44816;SDS011;30529;53.570;9.964;2023-02-04T09:20:46;2.83;;;1.20;;
44816;SDS011;30529;53.570;9.964;2023-02-04T09:23:13;2.87;;;1.23;;
44816;SDS011;30529;53.570;9.964;2023-02-04T09:25:40;1.80;;;1.33;;
44816;SDS011;30529;53.570;9.964;2023-02-04T09:28:07;2.27;;;1.03;;
44816;SDS011;30529;53.570;9.964;2023-02-04T09:30:37;3.87;;;1.30;;
44816;SDS011;30529;53.570;9.964;2023-02-04T09:33:06;3.97;;;1.50;;
44816;SDS011;30529;53.570;9.964;2023-02-04T09:35:33;3.33;;;1.10;;
44816;SDS011;30529;53.570;9.964;2023-02-04T09:38:00;2.40;;;1.40;;
44816;SDS011;30529;53.570;9.964;2023-02-04T09:40:27;3.77;;;1.40;;
44816;SDS011;30529;53.570;9.964;2023-02-04T09:43:01;5.57;;;1.50;;
44816;SDS011;30529;53.570;9.964;2023-02-04T09:45:29;1.60;;;1.13;;
44816;SDS011;30529;53.570;9.964;2023-02-04T09:47:57;2.53;;;1.10;;
44816;SDS011;30529;53.570;9.964;2023-02-04T09:50:27;2.97;;;1.60;;
44816;SDS011;30529;53.570;9.964;2023-02-04T09:52:56;2.53;;;1.43;;
44816;SDS011;30529;53.570;9.964;2023-02-04T09:55:27;4.00;;;1.63;;
44816;SDS011;30529;53.570;9.964;2023-02-04T09:58:04;2.97;;;1.57;;
44816;SDS011;30529;53.570;9.964;2023-02-04T10:00:35;3.00;;;1.73;;
44816;SDS011;30529;53.570;9.964;2023-02-04T10:03:03;2.70;;;1.27;;
44816;SDS011;30529;53.570;9.964;2023-02-04T10:05:38;3.03;;;1.20;;
44816;SDS011;30529;53.570;9.964;2023-02-04T10:08:04;1.70;;;1.30;;
44816;SDS011;30529;53.570;9.964;2023-02-04T10:10:30;2.53;;;1.47;;
44816;SDS011;30529;53.570;9.964;2023-02-04T10:12:57;3.10;;;1.47;;
44816;SDS011;30529;53.570;9.964;2023-02-04T10:15:26;1.20;;;1.10;;
44816;SDS011;30529;53.570;9.964;2023-02-04T10:18:11;3.80;;;1.30;;
44816;SDS011;30529;53.570;9.964;2023-02-04T10:20:51;3.30;;;1.37;;
44816;SDS011;30529;53.570;9.964;2023-02-04T10:23:25;2.17;;;1.23;;
44816;SDS011;30529;53.570;9.964;2023-02-04T10:25:51;2.03;;;1.20;;
44816;SDS011;30529;53.570;9.964;2023-02-04T10:28:17;4.00;;;1.60;;
44816;SDS011;30529;53.570;9.964;2023-02-04T10:30:43;4.97;;;2.00;;
44816;SDS011;30529;53.570;9.964;2023-02-04T10:33:15;2.87;;;1.63;;
44816;SDS011;30529;53.570;9.964;2023-02-04T10:35:50;4.00;;;1.60;;
44816;SDS011;30529;53.570;9.964;2023-02-04T10:38:18;2.40;;;1.37;;
44816;SDS011;30529;53.570;9.964;2023-02-04T10:41:02;4.77;;;1.50;;
44816;SDS011;30529;53.570;9.964;2023-02-04T10:43:30;2.00;;;1.40;;
44816;SDS011;30529;53.570;9.964;2023-02-04T10:45:57;3.73;;;1.30;;
44816;SDS011;30529;53.570;9.964;2023-02-04T10:48:28;3.07;;;1.83;;
44816;SDS011;30529;53.570;9.964;2023-02-04T10:50:58;4.03;;;1.67;;
44816;SDS011;30529;53.570;9.964;2023-02-04T10:58:21;3.63;;;1.40;;
44816;SDS011;30529;53.570;9.964;2023-02-04T11:00:58;2.47;;;1.40;;
44816;SDS011;30529;53.570;9.964;2023-02-04T11:04:14;4.17;;;1.60;;
44816;SDS011;30529;53.570;9.964;2023-02-04T11:07:47;1.80;;;1.50;;
44816;SDS011;30529;53.570;9.964;2023-02-04T11:10:18;4.73;;;1.80;;
44816;SDS011;30529;53.570;9.964;2023-02-04T11:20:54;2.60;;;1.33;;
44816;SDS011;30529;53.570;9.964;2023-02-04T11:28:44;4.73;;;1.17;;
44816;SDS011;30529;53.570;9.964;2023-02-04T11:31:14;1.90;;;1.40;;
44816;SDS011;30529;53.570;9.964;2023-02-04T11:34:53;3.20;;;1.43;;
44816;SDS011;30529;53.570;9.964;2023-02-04T11:37:02;2.30;;;1.37;;
44816;SDS011;30529;53.570;9.964;2023-02-04T11:42:58;2.03;;;1.00;;
44816;SDS011;30529;53.570;9.964;2023-02-04T11:49:26;4.47;;;1.43;;
44816;SDS011;30529;53.570;9.964;2023-02-04T11:52:05;2.07;;;1.20;;
44816;SDS011;30529;53.570;9.964;2023-02-04T11:54:35;5.83;;;2.40;;
44816;SDS011;30529;53.570;9.964;2023-02-04T11:57:02;3.57;;;1.47;;
44816;SDS011;30529;53.570;9.964;2023-02-04T11:59:28;2.07;;;1.20;;
44816;SDS011;30529;53.570;9.964;2023-02-04T12:02:05;2.87;;;1.20;;
44816;SDS011;30529;53.570;9.964;2023-02-04T12:04:55;1.83;;;1.33;;
44816;SDS011;30529;53.570;9.964;2023-02-04T12:07:24;3.43;;;1.37;;
44816;SDS011;30529;53.570;9.964;2023-02-04T12:09:54;4.47;;;2.00;;
44816;SDS011;30529;53.570;9.964;2023-02-04T12:12:24;4.47;;;1.60;;
44816;SDS011;30529;53.570;9.964;2023-02-04T12:15:03;4.60;;;2.20;;
44816;SDS011;30529;53.570;9.964;2023-02-04T12:17:37;6.20;;;1.60;;
44816;SDS011;30529;53.570;9.964;2023-02-04T12:20:03;3.30;;;1.40;;
44816;SDS011;30529;53.570;9.964;2023-02-04T12:22:30;3.47;;;1.40;;
44816;SDS011;30529;53.570;9.964;2023-02-04T12:24:56;7.23;;;1.60;;
44816;SDS011;30529;53.570;9.964;2023-02-04T12:27:22;4.50;;;1.30;;
44816;SDS011;30529;53.570;9.964;2023-02-04T12:29:48;1.67;;;1.20;;
44816;SDS011;30529;53.570;9.964;2023-02-04T12:32:14;2.00;;;1.17;;
44816;SDS011;30529;53.570;9.964;2023-02-04T12:34:40;2.03;;;1.40;;
44816;SDS011;30529;53.570;9.964;2023-02-04T12:40:00;2.87;;;1.50;;
44816;SDS011;30529;53.570;9.964;2023-02-04T12:42:26;2.63;;;1.30;;
44816;SDS011;30529;53.570;9.964;2023-02-04T12:44:52;2.00;;;0.90;;
44816;SDS011;30529;53.570;9.964;2023-02-04T12:47:18;4.60;;;1.20;;
44816;SDS011;30529;53.570;9.964;2023-02-04T12:53:32;2.07;;;1.30;;
44816;SDS011;30529;53.570;9.964;2023-02-04T12:55:58;2.40;;;1.00;;
44816;SDS011;30529;53.570;9.964;2023-02-04T12:58:24;2.63;;;0.90;;
44816;SDS011;30529;53.570;9.964;2023-02-04T13:00:51;1.77;;;1.13;;
44816;SDS011;30529;53.570;9.964;2023-02-04T13:03:18;1.53;;;1.20;;
44816;SDS011;30529;53.570;9.964;2023-02-04T13:05:45;2.47;;;1.00;;
44816;SDS011;30529;53.570;9.964;2023-02-04T13:08:43;6.30;;;1.43;;
44816;SDS011;30529;53.570;9.964;2023-02-04T13:11:09;1.60;;;1.20;;
44816;SDS011;30529;53.570;9.964;2023-02-04T13:13:35;2.00;;;1.10;;
44816;SDS011;30529;53.570;9.964;2023-02-04T13:16:13;3.07;;;1.43;;
44816;SDS011;30529;53.570;9.964;2023-02-04T13:18:42;2.30;;;1.20;;
44816;SDS011;30529;53.570;9.964;2023-02-04T13:21:11;4.17;;;1.50;;
44816;SDS011;30529;53.570;9.964;2023-02-04T13:23:37;2.60;;;1.33;;
44816;SDS011;30529;53.570;9.964;2023-02-04T13:26:06;1.73;;;1.20;;
44816;SDS011;30529;53.570;9.964;2023-02-04T13:28:33;1.93;;;1.23;;
44816;SDS011;30529;53.570;9.964;2023-02-04T13:31:02;1.90;;;1.17;;
44816;SDS011;30529;53.570;9.964;2023-02-04T13:33:28;2.97;;;1.57;;
44816;SDS011;30529;53.570;9.964;2023-02-04T13:35:54;2.13;;;1.27;;
44816;SDS011;30529;53.570;9.964;2023-02-04T13:38:21;5.57;;;1.63;;
44816;SDS011;30529;53.570;9.964;2023-02-04T13:40:47;2.23;;;1.40;;
44816;SDS011;30529;53.570;9.964;2023-02-04T13:43:13;3.07;;;1.17;;
44816;SDS011;30529;53.570;9.964;2023-02-04T13:45:39;2.93;;;1.37;;
44816;SDS011;30529;53.570;9.964;2023-02-04T13:48:12;3.67;;;1.20;;
44816;SDS011;30529;53.570;9.964;2023-02-04T13:50:38;2.13;;;1.20;;
44816;SDS011;30529;53.570;9.964;2023-02-04T13:53:04;1.43;;;1.17;;
44816;SDS011;30529;53.570;9.964;2023-02-04T13:55:30;2.10;;;1.37;;
44816;SDS011;30529;53.570;9.964;2023-02-04T13:57:56;3.97;;;1.53;;
44816;SDS011;30529;53.570;9.964;2023-02-04T14:00:22;3.20;;;1.50;;
44816;SDS011;30529;53.570;9.964;2023-02-04T14:02:48;7.90;;;2.27;;
44816;SDS011;30529;53.570;9.964;2023-02-04T14:05:14;3.73;;;1.67;;
44816;SDS011;30529;53.570;9.964;2023-02-04T14:07:40;2.47;;;1.20;;
44816;SDS011;30529;53.570;9.964;2023-02-04T14:10:06;4.40;;;1.30;;
44816;SDS011;30529;53.570;9.964;2023-02-04T14:12:33;2.77;;;1.57;;
44816;SDS011;30529;53.570;9.964;2023-02-04T14:14:59;3.37;;;1.33;;
44816;SDS011;30529;53.570;9.964;2023-02-04T14:17:25;2.57;;;1.07;;
44816;SDS011;30529;53.570;9.964;2023-02-04T14:19:51;3.50;;;1.10;;
44816;SDS011;30529;53.570;9.964;2023-02-04T14:22:17;2.33;;;1.03;;
44816;SDS011;30529;53.570;9.964;2023-02-04T14:24:43;3.20;;;1.33;;
44816;SDS011;30529;53.570;9.964;2023-02-04T14:27:09;2.50;;;1.00;;
44816;SDS011;30529;53.570;9.964;2023-02-04T14:29:35;3.80;;;1.23;;
44816;SDS011;30529;53.570;9.964;2023-02-04T14:32:01;3.20;;;1.10;;
44816;SDS011;30529;53.570;9.964;2023-02-04T14:34:27;1.77;;;1.37;;
44816;SDS011;30529;53.570;9.964;2023-02-04T14:36:53;2.23;;;1.10;;
44816;SDS011;30529;53.570;9.964;2023-02-04T14:39:19;1.30;;;0.97;;
44816;SDS011;30529;53.570;9.964;2023-02-04T14:41:45;9.40;;;1.37;;
44816;SDS011;30529;53.570;9.964;2023-02-04T14:44:11;1.77;;;0.80;;
44816;SDS011;30529;53.570;9.964;2023-02-04T14:46:40;6.07;;;1.80;;
44816;SDS011;30529;53.570;9.964;2023-02-04T14:49:08;3.03;;;1.20;;
44816;SDS011;30529;53.570;9.964;2023-02-04T14:51:34;2.00;;;1.27;;
44816;SDS011;30529;53.570;9.964;2023-02-04T14:54:00;11.53;;;1.60;;
44816;SDS011;30529;53.570;9.964;2023-02-04T14:56:27;1.97;;;1.13;;
44816;SDS011;30529;53.570;9.964;2023-02-04T14:58:53;3.03;;;1.10;;
44816;SDS011;30529;53.570;9.964;2023-02-04T15:01:18;3.80;;;1.23;;
44816;SDS011;30529;53.570;9.964;2023-02-04T15:03:44;2.90;;;1.50;;
44816;SDS011;30529;53.570;9.964;2023-02-04T15:06:10;4.67;;;1.53;;
44816;SDS011;30529;53.570;9.964;2023-02-04T15:08:36;3.23;;;1.30;;
44816;SDS011;30529;53.570;9.964;2023-02-04T15:11:02;2.40;;;1.20;;
44816;SDS011;30529;53.570;9.964;2023-02-04T15:13:28;3.23;;;1.00;;
44816;SDS011;30529;53.570;9.964;2023-02-04T15:15:54;1.80;;;1.13;;
44816;SDS011;30529;53.570;9.964;2023-02-04T15:18:20;2.57;;;1.30;;
44816;SDS011;30529;53.570;9.964;2023-02-04T15:20:46;3.40;;;1.37;;
44816;SDS011;30529;53.570;9.964;2023-02-04T15:23:12;3.80;;;1.93;;
44816;SDS011;30529;53.570;9.964;2023-02-04T15:25:39;3.30;;;1.40;;
44816;SDS011;30529;53.570;9.964;2023-02-04T15:28:05;4.43;;;2.03;;
44816;SDS011;30529;53.570;9.964;2023-02-04T15:30:31;2.20;;;1.10;;
44816;SDS011;30529;53.570;9.964;2023-02-04T15:32:57;1.83;;;1.13;;
44816;SDS011;30529;53.570;9.964;2023-02-04T15:35:23;3.87;;;1.23;;
44816;SDS011;30529;53.570;9.964;2023-02-04T15:37:49;2.03;;;1.30;;
44816;SDS011;30529;53.570;9.964;2023-02-04T15:40:16;2.80;;;1.03;;
44816;SDS011;30529;53.570;9.964;2023-02-04T15:42:42;2.47;;;1.33;;
44816;SDS011;30529;53.570;9.964;2023-02-04T15:45:08;3.80;;;1.90;;
44816;SDS011;30529;53.570;9.964;2023-02-04T15:47:34;4.93;;;1.50;;
44816;SDS011;30529;53.570;9.964;2023-02-04T15:50:00;8.63;;;1.60;;
44816;SDS011;30529;53.570;9.964;2023-02-04T15:52:28;3.10;;;1.30;;
44816;SDS011;30529;53.570;9.964;2023-02-04T15:54:54;4.57;;;1.30;;
44816;SDS011;30529;53.570;9.964;2023-02-04T15:57:20;4.17;;;1.63;;
44816;SDS011;30529;53.570;9.964;2023-02-04T15:59:46;1.67;;;1.23;;
44816;SDS011;30529;53.570;9.964;2023-02-04T16:02:12;1.23;;;1.03;;
44816;SDS011;30529;53.570;9.964;2023-02-04T16:04:38;6.57;;;1.53;;
44816;SDS011;30529;53.570;9.964;2023-02-04T16:07:06;2.83;;;1.33;;
44816;SDS011;30529;53.570;9.964;2023-02-04T16:09:33;2.97;;;1.20;;
44816;SDS011;30529;53.570;9.964;2023-02-04T16:11:59;1.90;;;1.20;;
44816;SDS011;30529;53.570;9.964;2023-02-04T16:14:25;5.27;;;1.57;;
44816;SDS011;30529;53.570;9.964;2023-02-04T16:16:51;3.50;;;1.00;;
44816;SDS011;30529;53.570;9.964;2023-02-04T16:19:17;1.97;;;1.10;;
44816;SDS011;30529;53.570;9.964;2023-02-04T16:21:43;3.83;;;1.00;;
44816;SDS011;30529;53.570;9.964;2023-02-04T16:24:09;4.07;;;1.20;;
44816;SDS011;30529;53.570;9.964;2023-02-04T16:26:36;2.67;;;1.23;;
44816;SDS011;30529;53.570;9.964;2023-02-04T16:29:02;3.10;;;1.37;;
44816;SDS011;30529;53.570;9.964;2023-02-04T16:31:28;4.70;;;1.43;;
44816;SDS011;30529;53.570;9.964;2023-02-04T16:33:54;1.93;;;1.00;;
44816;SDS011;30529;53.570;9.964;2023-02-04T16:36:20;4.43;;;1.60;;
44816;SDS011;30529;53.570;9.964;2023-02-04T16:38:46;3.37;;;1.20;;
44816;SDS011;30529;53.570;9.964;2023-02-04T16:41:12;2.00;;;1.30;;
44816;SDS011;30529;53.570;9.964;2023-02-04T16:43:38;2.20;;;1.30;;
44816;SDS011;30529;53.570;9.964;2023-02-04T16:46:04;3.00;;;1.50;;
44816;SDS011;30529;53.570;9.964;2023-02-04T16:48:31;3.80;;;1.60;;
44816;SDS011;30529;53.570;9.964;2023-02-04T16:50:57;8.00;;;1.40;;
44816;SDS011;30529;53.570;9.964;2023-02-04T16:53:23;5.17;;;1.60;;
44816;SDS011;30529;53.570;9.964;2023-02-04T16:55:48;2.50;;;1.47;;
44816;SDS011;30529;53.570;9.964;2023-02-04T16:58:15;3.73;;;1.90;;
44816;SDS011;30529;53.570;9.964;2023-02-04T17:00:41;6.15;;;2.70;;
44816;SDS011;30529;53.570;9.964;2023-02-04T17:03:09;4.83;;;2.03;;
44816;SDS011;30529;53.570;9.964;2023-02-04T17:05:36;4.43;;;2.67;;
44816;SDS011;30529;53.570;9.964;2023-02-04T17:08:03;5.47;;;2.50;;
44816;SDS011;30529;53.570;9.964;2023-02-04T17:10:29;5.90;;;2.70;;
44816;SDS011;30529;53.570;9.964;2023-02-04T17:13:14;4.33;;;1.67;;
44816;SDS011;30529;53.570;9.964;2023-02-04T17:15:40;3.70;;;1.67;;
44816;SDS011;30529;53.570;9.964;2023-02-04T17:18:06;2.90;;;1.60;;
44816;SDS011;30529;53.570;9.964;2023-02-04T17:20:32;4.00;;;1.90;;
44816;SDS011;30529;53.570;9.964;2023-02-04T17:22:59;1.70;;;1.43;;
44816;SDS011;30529;53.570;9.964;2023-02-04T17:25:25;3.73;;;1.97;;
44816;SDS011;30529;53.570;9.964;2023-02-04T17:27:51;5.43;;;1.40;;
44816;SDS011;30529;53.570;9.964;2023-02-04T17:30:18;4.10;;;2.17;;
44816;SDS011;30529;53.570;9.964;2023-02-04T17:32:45;3.30;;;1.77;;
44816;SDS011;30529;53.570;9.964;2023-02-04T17:35:11;6.37;;;1.70;;
44816;SDS011;30529;53.570;9.964;2023-02-04T17:37:37;3.23;;;1.73;;
44816;SDS011;30529;53.570;9.964;2023-02-04T17:40:04;3.17;;;1.73;;
44816;SDS011;30529;53.570;9.964;2023-02-04T17:42:30;3.47;;;2.03;;
44816;SDS011;30529;53.570;9.964;2023-02-04T17:44:56;7.03;;;2.83;;
44816;SDS011;30529;53.570;9.964;2023-02-04T17:47:22;3.17;;;1.43;;
44816;SDS011;30529;53.570;9.964;2023-02-04T17:49:48;4.30;;;2.10;;
44816;SDS011;30529;53.570;9.964;2023-02-04T17:52:14;4.23;;;1.90;;
44816;SDS011;30529;53.570;9.964;2023-02-04T17:54:40;2.87;;;1.50;;
44816;SDS011;30529;53.570;9.964;2023-02-04T17:57:14;3.90;;;1.93;;
44816;SDS011;30529;53.570;9.964;2023-02-04T17:59:45;4.67;;;1.97;;
44816;SDS011;30529;53.570;9.964;2023-02-04T18:02:28;3.60;;;1.77;;
44816;SDS011;30529;53.570;9.964;2023-02-04T18:04:57;3.13;;;1.87;;
44816;SDS011;30529;53.570;9.964;2023-02-04T18:07:25;4.43;;;1.93;;
44816;SDS011;30529;53.570;9.964;2023-02-04T18:10:06;6.37;;;2.57;;
44816;SDS011;30529;53.570;9.964;2023-02-04T18:12:43;3.80;;;2.00;;
44816;SDS011;30529;53.570;9.964;2023-02-04T18:15:23;5.83;;;2.10;;
44816;SDS011;30529;53.570;9.964;2023-02-04T18:17:51;4.23;;;2.20;;
44816;SDS011;30529;53.570;9.964;2023-02-04T18:20:27;3.50;;;2.37;;
44816;SDS011;30529;53.570;9.964;2023-02-04T18:22:54;2.87;;;2.10;;
44816;SDS011;30529;53.570;9.964;2023-02-04T18:25:23;4.60;;;2.00;;
44816;SDS011;30529;53.570;9.964;2023-02-04T18:27:50;3.90;;;1.80;;
44816;SDS011;30529;53.570;9.964;2023-02-04T18:30:18;3.63;;;2.13;;
44816;SDS011;30529;53.570;9.964;2023-02-04T18:32:46;4.27;;;2.20;;
44816;SDS011;30529;53.570;9.964;2023-02-04T18:37:51;3.80;;;2.00;;
44816;SDS011;30529;53.570;9.964;2023-02-04T18:42:57;4.63;;;2.57;;
44816;SDS011;30529;53.570;9.964;2023-02-04T18:45:44;6.57;;;2.33;;
44816;SDS011;30529;53.570;9.964;2023-02-04T18:50:45;2.30;;;1.70;;
44816;SDS011;30529;53.570;9.964;2023-02-04T18:55:42;3.40;;;1.70;;
44816;SDS011;30529;53.570;9.964;2023-02-04T19:03:58;7.07;;;1.87;;
44816;SDS011;30529;53.570;9.964;2023-02-04T19:06:37;2.40;;;1.33;;
44816;SDS011;30529;53.570;9.964;2023-02-04T19:09:13;2.40;;;1.30;;
44816;SDS011;30529;53.570;9.964;2023-02-04T19:11:46;2.83;;;1.40;;
44816;SDS011;30529;53.570;9.964;2023-02-04T19:16:42;3.57;;;1.60;;